Time;durP1;ratioP1;P1;durP2;ratioP2;P2;SDS_P1;SDS_P2;PMS_P1;PMS_P2;Temp;Humidity;BMP_temperature;BMP_pressure;BME280_temperature;BME280_humidity;BME280_pressure;Samples;Min_cycle;Max_cycle;Signal;HPM_P1;HPM_P2
2023/12/25 00:01:20;;;;;;;10.70;10.00;;;9.30;99.90;;;;;;4889433;29;20237;-78
2023/12/25 00:03:48;;;;;;;10.50;9.90;;;9.20;99.90;;;;;;4883896;29;20233;-78
2023/12/25 00:06:15;;;;;;;10.30;9.80;;;9.20;99.90;;;;;;4884376;29;20201;-78
2023/12/25 00:08:42;;;;;;;10.60;10.00;;;9.20;99.90;;;;;;4906444;29;20209;-79
2023/12/25 00:11:10;;;;;;;11.00;10.40;;;9.10;99.90;;;;;;4904030;29;20293;-78
2023/12/25 00:13:37;;;;;;;11.13;10.47;;;9.00;99.90;;;;;;4891884;29;20228;-78
2023/12/25 00:16:04;;;;;;;11.17;10.43;;;9.00;99.90;;;;;;4898331;29;20249;-78
2023/12/25 00:18:31;;;;;;;11.20;10.40;;;9.00;99.90;;;;;;4898061;29;20217;-78
2023/12/25 00:20:59;;;;;;;10.90;10.20;;;8.90;99.90;;;;;;4884158;29;20217;-79
2023/12/25 00:23:26;;;;;;;11.20;10.60;;;8.80;99.90;;;;;;4884207;29;20249;-78
2023/12/25 00:25:53;;;;;;;11.50;10.80;;;8.80;99.90;;;;;;4889157;29;20672;-79
2023/12/25 00:28:19;;;;;;;11.40;10.80;;;8.70;99.90;;;;;;4902875;29;20193;-78
2023/12/25 00:30:46;;;;;;;11.07;10.47;;;8.70;99.90;;;;;;4883510;29;20229;-78
2023/12/25 00:33:13;;;;;;;11.30;10.70;;;8.70;99.90;;;;;;4898846;29;20218;-78
2023/12/25 00:35:40;;;;;;;11.83;11.13;;;8.70;99.90;;;;;;4887566;29;20217;-78
2023/12/25 00:38:08;;;;;;;11.73;11.13;;;8.60;99.90;;;;;;4884531;29;20672;-79
2023/12/25 00:40:34;;;;;;;11.60;10.90;;;8.60;99.90;;;;;;4878476;29;20657;-78
2023/12/25 00:43:01;;;;;;;11.50;10.90;;;8.60;99.90;;;;;;4909891;29;20597;-78
2023/12/25 00:45:28;;;;;;;11.40;10.80;;;8.60;99.90;;;;;;4885402;29;20205;-78
2023/12/25 00:47:55;;;;;;;11.77;11.07;;;8.60;99.90;;;;;;4901307;29;20204;-78
2023/12/25 00:50:21;;;;;;;11.30;10.70;;;8.60;99.90;;;;;;4885953;29;20684;-78
2023/12/25 00:52:48;;;;;;;11.80;11.00;;;8.60;99.90;;;;;;4897809;29;20416;-79
2023/12/25 00:55:16;;;;;;;11.40;10.70;;;8.50;99.90;;;;;;4879665;29;20209;-78
2023/12/25 00:57:43;;;;;;;11.20;10.50;;;8.60;99.90;;;;;;4877060;29;20220;-78
2023/12/25 01:00:11;;;;;;;11.30;10.70;;;8.60;99.90;;;;;;4897503;29;20228;-78
2023/12/25 01:02:38;;;;;;;11.33;10.73;;;8.60;99.90;;;;;;4883507;29;20273;-78
2023/12/25 01:05:06;;;;;;;11.70;11.00;;;8.60;99.90;;;;;;4897861;29;20527;-77
2023/12/25 01:07:32;;;;;;;11.23;10.63;;;8.60;99.90;;;;;;4898223;29;20213;-77
2023/12/25 01:09:59;;;;;;;11.43;10.73;;;8.70;99.90;;;;;;4875906;29;20221;-77
2023/12/25 01:12:27;;;;;;;11.20;10.60;;;8.70;99.90;;;;;;4898454;29;20290;-78
2023/12/25 01:14:54;;;;;;;11.20;10.60;;;8.70;99.90;;;;;;4897940;29;20668;-78
2023/12/25 01:17:21;;;;;;;11.60;10.90;;;8.70;99.90;;;;;;4897831;29;20217;-78
2023/12/25 01:19:48;;;;;;;11.43;10.77;;;8.70;99.90;;;;;;4877411;29;20201;-78
2023/12/25 01:22:15;;;;;;;11.33;10.70;;;8.70;99.90;;;;;;4897561;29;20197;-78
2023/12/25 01:24:42;;;;;;;11.20;10.60;;;8.70;99.90;;;;;;4883303;29;20209;-78
2023/12/25 01:27:09;;;;;;;11.20;10.60;;;8.70;99.90;;;;;;4887993;29;20256;-77
2023/12/25 01:29:38;;;;;;;11.03;10.43;;;8.70;99.90;;;;;;4886736;29;20206;-78
2023/12/25 01:32:05;;;;;;;11.33;10.53;;;8.70;99.90;;;;;;4881750;29;20240;-78
2023/12/25 01:34:32;;;;;;;11.10;10.50;;;8.70;99.90;;;;;;4879503;29;20280;-77
2023/12/25 01:37:00;;;;;;;11.20;10.60;;;8.70;99.90;;;;;;4897051;29;20233;-78
2023/12/25 01:39:28;;;;;;;11.20;10.60;;;8.70;99.90;;;;;;4903623;29;20205;-77
2023/12/25 01:41:55;;;;;;;11.20;10.60;;;8.70;99.90;;;;;;4878786;29;20232;-78
2023/12/25 01:44:22;;;;;;;11.30;10.50;;;8.70;99.90;;;;;;4897320;29;20246;-78
2023/12/25 01:46:50;;;;;;;11.47;10.83;;;8.70;99.90;;;;;;4897400;29;20205;-78
2023/12/25 01:49:17;;;;;;;11.90;11.10;;;8.70;99.90;;;;;;4904678;29;20210;-78
2023/12/25 01:51:44;;;;;;;11.70;11.00;;;8.70;99.90;;;;;;4882569;29;20221;-78
2023/12/25 01:54:11;;;;;;;11.50;10.90;;;8.80;99.90;;;;;;4877850;29;20209;-78
2023/12/25 01:56:38;;;;;;;11.50;10.90;;;8.70;99.90;;;;;;4897641;29;20209;-78
2023/12/25 01:59:05;;;;;;;11.30;10.60;;;8.70;99.90;;;;;;4897159;29;20209;-77
2023/12/25 02:01:32;;;;;;;11.83;11.13;;;8.70;99.90;;;;;;4874168;29;20238;-78
2023/12/25 02:04:00;;;;;;;11.50;10.80;;;8.70;99.90;;;;;;4898456;29;20203;-78
2023/12/25 02:06:28;;;;;;;11.37;10.57;;;8.70;99.90;;;;;;4882101;29;20623;-77
2023/12/25 02:08:56;;;;;;;11.40;10.80;;;8.70;99.90;;;;;;4897371;29;20771;-78
2023/12/25 02:11:22;;;;;;;11.70;11.00;;;8.60;99.90;;;;;;4897037;29;20227;-78
2023/12/25 02:13:51;;;;;;;11.43;10.73;;;8.60;99.90;;;;;;4897082;29;20236;-78
2023/12/25 02:16:18;;;;;;;11.60;10.90;;;8.60;99.90;;;;;;4885510;29;20215;-78
2023/12/25 02:18:45;;;;;;;11.40;10.80;;;8.60;99.90;;;;;;4875510;29;20217;-77
2023/12/25 02:21:13;;;;;;;11.27;10.57;;;8.60;99.90;;;;;;4881278;29;20239;-77
2023/12/25 02:23:43;;;;;;;11.20;10.50;;;8.60;99.90;;;;;;4897344;29;20197;-78
2023/12/25 02:26:12;;;;;;;10.87;10.27;;;8.60;99.90;;;;;;4901883;29;20204;-78
2023/12/25 02:28:39;;;;;;;10.70;10.10;;;8.50;99.90;;;;;;4902901;29;20258;-77
2023/12/25 02:31:06;;;;;;;11.27;10.67;;;8.50;99.90;;;;;;4884702;29;20247;-78
2023/12/25 02:33:33;;;;;;;10.90;10.30;;;8.60;99.90;;;;;;4886811;29;20217;-77
2023/12/25 02:36:00;;;;;;;11.00;10.40;;;8.50;99.90;;;;;;4886712;29;20233;-78
2023/12/25 02:38:27;;;;;;;11.80;11.10;;;8.50;99.90;;;;;;4895137;29;20228;-77
2023/12/25 02:40:54;;;;;;;11.73;11.03;;;8.50;99.90;;;;;;4886509;29;20678;-77
2023/12/25 02:43:23;;;;;;;11.73;11.03;;;8.50;99.90;;;;;;4885825;29;20201;-78
2023/12/25 02:45:50;;;;;;;11.43;10.83;;;8.50;99.90;;;;;;4901678;29;20213;-77
2023/12/25 02:48:17;;;;;;;11.10;10.50;;;8.50;99.90;;;;;;4905501;29;20222;-77
2023/12/25 02:50:44;;;;;;;11.37;10.77;;;8.60;99.90;;;;;;4895487;29;20739;-77
2023/12/25 02:53:11;;;;;;;11.10;10.50;;;8.60;99.90;;;;;;4905645;29;20642;-77
2023/12/25 02:55:39;;;;;;;11.20;10.60;;;8.50;99.90;;;;;;4887374;29;20221;-77
2023/12/25 02:58:06;;;;;;;11.40;10.67;;;8.60;99.90;;;;;;4877083;29;20232;-77
2023/12/25 03:00:34;;;;;;;11.20;10.60;;;8.50;99.90;;;;;;4885042;29;20720;-78
2023/12/25 03:03:00;;;;;;;11.93;11.03;;;8.50;99.90;;;;;;4878651;29;20216;-77
2023/12/25 03:05:26;;;;;;;11.07;10.47;;;8.50;99.90;;;;;;4900371;29;20205;-78
2023/12/25 03:07:53;;;;;;;10.83;10.23;;;8.50;99.90;;;;;;4900466;29;20209;-77
2023/12/25 03:10:20;;;;;;;10.80;10.20;;;8.50;99.90;;;;;;4899991;29;20233;-78
2023/12/25 03:12:47;;;;;;;10.60;10.00;;;8.50;99.90;;;;;;4893989;29;20224;-78
2023/12/25 03:15:13;;;;;;;10.77;10.17;;;8.50;99.90;;;;;;4885420;29;20201;-77
2023/12/25 03:17:41;;;;;;;11.07;10.37;;;8.40;99.90;;;;;;4880561;29;20233;-77
2023/12/25 03:20:09;;;;;;;10.73;10.03;;;8.50;99.90;;;;;;4877605;29;20764;-78
2023/12/25 03:22:36;;;;;;;11.17;10.47;;;8.50;99.90;;;;;;4887832;29;20215;-77
2023/12/25 03:25:03;;;;;;;10.80;10.20;;;8.40;99.90;;;;;;4887024;29;20205;-77
2023/12/25 03:27:30;;;;;;;11.00;10.33;;;8.40;99.90;;;;;;4886136;29;20198;-78
2023/12/25 03:29:57;;;;;;;10.57;9.87;;;8.40;99.90;;;;;;4892642;29;20225;-78
2023/12/25 03:32:22;;;;;;;10.57;9.97;;;8.40;99.90;;;;;;4899258;29;20213;-77
2023/12/25 03:34:51;;;;;;;10.70;10.00;;;8.40;99.90;;;;;;4884839;29;20296;-77
2023/12/25 03:37:18;;;;;;;10.80;10.20;;;8.40;99.90;;;;;;4876960;29;20205;-77
2023/12/25 03:39:45;;;;;;;10.57;9.97;;;8.40;99.90;;;;;;4884770;29;20217;-78
2023/12/25 03:42:12;;;;;;;10.63;10.03;;;8.50;99.90;;;;;;4876611;29;20253;-77
2023/12/25 03:44:38;;;;;;;10.23;9.73;;;8.40;99.90;;;;;;4884310;29;20212;-78
2023/12/25 03:47:05;;;;;;;10.67;10.07;;;8.40;99.90;;;;;;4885171;29;20209;-77
2023/12/25 03:49:32;;;;;;;10.57;9.97;;;8.40;99.90;;;;;;4880184;29;20659;-78
2023/12/25 03:52:00;;;;;;;10.70;9.97;;;8.40;99.90;;;;;;4893362;29;20221;-78
2023/12/25 03:54:27;;;;;;;10.70;10.10;;;8.40;99.90;;;;;;4879713;29;20294;-79
2023/12/25 03:56:54;;;;;;;10.50;9.90;;;8.40;99.90;;;;;;4886646;29;20205;-78
2023/12/25 03:59:24;;;;;;;10.37;9.77;;;8.40;99.90;;;;;;4876703;29;20212;-79
2023/12/25 04:01:51;;;;;;;10.33;9.80;;;8.40;99.90;;;;;;4879805;29;20232;-79
2023/12/25 04:04:18;;;;;;;10.47;9.90;;;8.40;99.90;;;;;;4894458;29;20236;-79
2023/12/25 04:06:45;;;;;;;10.60;9.87;;;8.40;99.90;;;;;;4870327;29;20285;-78
2023/12/25 04:09:13;;;;;;;10.10;9.50;;;8.40;99.90;;;;;;4894433;29;20205;-78
2023/12/25 04:11:40;;;;;;;9.87;9.30;;;8.40;99.90;;;;;;4872060;29;20613;-78
2023/12/25 04:14:07;;;;;;;9.80;9.30;;;8.40;99.90;;;;;;4892845;29;20224;-78
2023/12/25 04:16:34;;;;;;;10.00;9.40;;;8.40;99.90;;;;;;4876338;29;20680;-78
2023/12/25 04:19:01;;;;;;;9.63;9.13;;;8.40;99.90;;;;;;4894196;29;20217;-79
2023/12/25 04:21:30;;;;;;;10.50;9.77;;;8.40;99.90;;;;;;4894322;29;20235;-79
2023/12/25 04:23:57;;;;;;;9.80;9.20;;;8.40;99.90;;;;;;4879832;29;20194;-78
2023/12/25 04:26:28;;;;;;;10.00;9.40;;;8.40;99.90;;;;;;4879740;29;20201;-78
2023/12/25 04:28:55;;;;;;;9.80;9.30;;;8.40;99.90;;;;;;4870374;29;20305;-77
2023/12/25 04:31:22;;;;;;;9.80;9.30;;;8.50;99.90;;;;;;4893834;29;20652;-78
2023/12/25 04:33:49;;;;;;;10.20;9.60;;;8.40;99.90;;;;;;4878510;29;20225;-78
2023/12/25 04:36:16;;;;;;;9.80;9.30;;;8.40;99.90;;;;;;4897322;29;20711;-77
2023/12/25 04:38:42;;;;;;;9.60;9.10;;;8.50;99.90;;;;;;4882892;29;20209;-77
2023/12/25 04:41:09;;;;;;;9.87;9.23;;;8.50;99.90;;;;;;4897159;29;20259;-77
2023/12/25 04:43:39;;;;;;;9.50;9.00;;;8.50;99.90;;;;;;4877470;29;20269;-77
2023/12/25 04:46:08;;;;;;;9.60;9.10;;;8.50;99.90;;;;;;4878895;29;20246;-77
2023/12/25 04:48:35;;;;;;;9.40;8.90;;;8.50;99.90;;;;;;4881374;29;20231;-77
2023/12/25 04:51:03;;;;;;;9.30;8.80;;;8.50;99.90;;;;;;4874251;29;20225;-77
2023/12/25 04:53:31;;;;;;;9.67;9.17;;;8.50;99.90;;;;;;4881925;29;20217;-78
2023/12/25 04:55:58;;;;;;;9.43;8.93;;;8.50;99.90;;;;;;4883650;29;20197;-77
2023/12/25 04:58:25;;;;;;;9.47;8.97;;;8.50;99.90;;;;;;4897064;29;20227;-78
2023/12/25 05:00:53;;;;;;;9.80;9.30;;;8.50;99.90;;;;;;4897231;29;20228;-77
2023/12/25 05:03:21;;;;;;;9.53;9.03;;;8.50;99.90;;;;;;4903500;29;20193;-77
2023/12/25 05:05:49;;;;;;;9.60;9.10;;;8.40;99.90;;;;;;4896966;29;20198;-79
2023/12/25 05:08:16;;;;;;;9.53;8.93;;;8.40;99.90;;;;;;4903690;29;20683;-77
2023/12/25 05:10:43;;;;;;;9.57;9.07;;;8.30;99.90;;;;;;4879568;29;20213;-80
2023/12/25 05:13:10;;;;;;;9.77;9.20;;;8.40;99.90;;;;;;4893788;29;20290;-80
2023/12/25 05:15:38;;;;;;;9.70;9.10;;;8.40;99.90;;;;;;4879064;29;20224;-80
2023/12/25 05:18:07;;;;;;;9.40;8.90;;;8.40;99.90;;;;;;4878920;29;20216;-79
2023/12/25 05:20:33;;;;;;;9.27;8.67;;;8.30;99.90;;;;;;4876970;29;20260;-79
2023/12/25 05:23:01;;;;;;;9.90;9.30;;;8.40;99.90;;;;;;4879992;29;20622;-78
2023/12/25 05:25:27;;;;;;;9.77;9.17;;;8.30;99.90;;;;;;4893687;29;20229;-79
2023/12/25 05:27:54;;;;;;;9.50;9.00;;;8.30;99.90;;;;;;4871803;29;20206;-78
2023/12/25 05:30:21;;;;;;;9.90;9.40;;;8.30;99.90;;;;;;4899026;29;20805;-78
2023/12/25 05:32:48;;;;;;;9.43;8.93;;;8.40;99.90;;;;;;4892823;29;20322;-78
2023/12/25 05:35:16;;;;;;;9.70;9.10;;;8.30;99.90;;;;;;4878596;29;20213;-78
2023/12/25 05:37:43;;;;;;;9.50;9.00;;;8.40;99.90;;;;;;4876761;29;20228;-78
2023/12/25 05:40:11;;;;;;;9.77;9.20;;;8.40;99.90;;;;;;4875743;29;20647;-78
2023/12/25 05:42:38;;;;;;;10.30;9.70;;;8.30;99.90;;;;;;4878272;29;20261;-79
2023/12/25 05:45:05;;;;;;;10.00;9.40;;;8.30;99.90;;;;;;4892690;29;20208;-78
2023/12/25 05:47:32;;;;;;;9.50;9.00;;;8.30;99.90;;;;;;4892159;29;20205;-81
2023/12/25 05:49:59;;;;;;;9.53;9.03;;;8.40;99.90;;;;;;4884377;29;20257;-80
2023/12/25 05:52:27;;;;;;;9.70;9.20;;;8.40;99.90;;;;;;4879944;29;20278;-79
2023/12/25 05:54:54;;;;;;;9.53;9.03;;;8.40;99.90;;;;;;4878186;29;20237;-78
2023/12/25 05:57:21;;;;;;;9.57;9.07;;;8.40;99.90;;;;;;4881696;29;20573;-80
2023/12/25 05:59:48;;;;;;;9.50;9.00;;;8.40;99.90;;;;;;4878973;29;20209;-77
2023/12/25 06:02:15;;;;;;;9.77;9.20;;;8.40;99.90;;;;;;4877219;29;20297;-78
2023/12/25 06:04:42;;;;;;;9.60;9.00;;;8.40;99.90;;;;;;4874474;29;20201;-77
2023/12/25 06:07:09;;;;;;;9.70;9.10;;;8.40;99.90;;;;;;4877073;29;20224;-77
2023/12/25 06:09:37;;;;;;;9.60;9.10;;;8.30;99.90;;;;;;4881051;29;20213;-77
2023/12/25 06:12:05;;;;;;;9.90;9.40;;;8.30;99.90;;;;;;4885272;29;20567;-78
2023/12/25 06:14:32;;;;;;;10.30;9.70;;;8.30;99.90;;;;;;4883035;29;20244;-77
2023/12/25 06:16:58;;;;;;;10.00;9.50;;;8.20;99.90;;;;;;4891759;29;20256;-78
2023/12/25 06:19:25;;;;;;;9.10;8.60;;;8.20;99.90;;;;;;4887742;29;20235;-77
2023/12/25 06:21:52;;;;;;;9.13;8.63;;;8.20;99.90;;;;;;4880749;29;20240;-78
2023/12/25 06:24:19;;;;;;;9.40;8.90;;;8.10;99.90;;;;;;4895020;29;20233;-77
2023/12/25 06:26:47;;;;;;;9.33;8.83;;;8.10;99.90;;;;;;4874839;29;20676;-77
2023/12/25 06:29:14;;;;;;;9.40;8.90;;;8.10;99.90;;;;;;4881307;29;20228;-77
2023/12/25 06:31:40;;;;;;;9.50;9.00;;;8.10;99.90;;;;;;4877441;29;20664;-79
2023/12/25 06:34:07;;;;;;;9.27;8.77;;;8.00;99.90;;;;;;4879757;29;20213;-80
2023/12/25 06:36:34;;;;;;;9.57;9.07;;;8.00;99.90;;;;;;4881013;29;20205;-77
2023/12/25 06:39:01;;;;;;;9.30;8.80;;;8.00;99.90;;;;;;4903884;29;20219;-78
2023/12/25 06:41:27;;;;;;;9.60;9.10;;;7.90;99.90;;;;;;4889834;29;20249;-77
2023/12/25 06:43:55;;;;;;;9.50;9.00;;;7.90;99.90;;;;;;4885144;29;20206;-77
2023/12/25 06:46:22;;;;;;;9.60;9.10;;;8.00;99.90;;;;;;4896220;29;20669;-77
2023/12/25 06:48:49;;;;;;;9.37;8.87;;;7.90;99.90;;;;;;4896484;29;20213;-77
2023/12/25 06:51:16;;;;;;;9.60;9.10;;;7.90;99.90;;;;;;4876993;29;20217;-79
2023/12/25 06:53:43;;;;;;;9.53;9.03;;;7.90;99.90;;;;;;4880474;29;20650;-79
2023/12/25 06:56:10;;;;;;;10.30;9.80;;;7.90;99.90;;;;;;4873299;29;20202;-83
2023/12/25 06:58:37;;;;;;;9.67;9.17;;;7.80;99.90;;;;;;4893366;29;20202;-77
2023/12/25 07:01:06;;;;;;;9.80;9.20;;;7.80;99.90;;;;;;4901359;29;20225;-78
2023/12/25 07:03:33;;;;;;;10.00;9.50;;;7.80;99.90;;;;;;4893834;29;20673;-79
2023/12/25 07:06:00;;;;;;;9.70;9.20;;;7.80;99.90;;;;;;4874352;29;20212;-78
2023/12/25 07:08:27;;;;;;;9.60;9.00;;;7.70;99.90;;;;;;4879811;29;20205;-77
2023/12/25 07:10:54;;;;;;;9.60;9.10;;;7.70;99.90;;;;;;4877593;29;20222;-76
2023/12/25 07:13:21;;;;;;;9.73;9.23;;;7.70;99.90;;;;;;4895008;29;20205;-78
2023/12/25 07:15:48;;;;;;;9.40;8.90;;;7.60;99.90;;;;;;4882170;29;20665;-77
2023/12/25 07:18:16;;;;;;;9.47;8.97;;;7.60;99.90;;;;;;4875344;29;20209;-78
2023/12/25 07:20:43;;;;;;;9.40;8.90;;;7.60;99.90;;;;;;4896583;29;20259;-78
2023/12/25 07:23:12;;;;;;;9.60;9.00;;;7.60;99.90;;;;;;4884145;29;20684;-78
2023/12/25 07:25:39;;;;;;;9.60;9.10;;;7.50;99.90;;;;;;4881650;29;20277;-78
2023/12/25 07:28:06;;;;;;;9.50;9.00;;;7.60;99.90;;;;;;4886657;29;20582;-77
2023/12/25 07:30:32;;;;;;;9.53;9.03;;;7.60;99.90;;;;;;4897138;29;20657;-78
2023/12/25 07:32:59;;;;;;;9.10;8.60;;;7.60;99.90;;;;;;4881665;29;20249;-77
2023/12/25 07:35:27;;;;;;;8.80;8.30;;;7.60;99.90;;;;;;4880080;29;20232;-77
2023/12/25 07:37:54;;;;;;;8.80;8.30;;;7.60;99.90;;;;;;4880615;29;20254;-77
2023/12/25 07:40:21;;;;;;;8.80;8.30;;;7.60;99.90;;;;;;4876408;29;20290;-77
2023/12/25 07:42:48;;;;;;;8.90;8.40;;;7.60;99.90;;;;;;4881469;29;20645;-77
2023/12/25 07:45:15;;;;;;;9.30;8.80;;;7.70;99.90;;;;;;4880052;29;20205;-77
2023/12/25 07:47:42;;;;;;;9.50;8.90;;;7.60;99.90;;;;;;4881485;29;20224;-77
2023/12/25 07:50:09;;;;;;;9.20;8.60;;;7.70;99.90;;;;;;4887154;29;20284;-80
2023/12/25 07:52:37;;;;;;;8.87;8.37;;;7.70;99.90;;;;;;4883019;29;20245;-79
2023/12/25 07:55:05;;;;;;;9.00;8.50;;;7.80;99.90;;;;;;4883178;29;20276;-78
2023/12/25 07:57:31;;;;;;;9.80;8.90;;;7.80;99.90;;;;;;4881709;29;20209;-79
2023/12/25 07:59:58;;;;;;;9.20;8.60;;;7.90;99.90;;;;;;4877665;29;20449;-76
2023/12/25 08:02:25;;;;;;;9.30;8.70;;;8.00;99.90;;;;;;4881182;29;20726;-77
2023/12/25 08:04:52;;;;;;;8.77;8.27;;;8.00;99.90;;;;;;4879926;29;20628;-77
2023/12/25 08:07:19;;;;;;;9.00;8.50;;;8.10;99.90;;;;;;4879970;29;20225;-76
2023/12/25 08:09:47;;;;;;;9.17;8.67;;;8.10;99.90;;;;;;4879938;29;20630;-78
2023/12/25 08:12:14;;;;;;;8.93;8.43;;;8.20;99.90;;;;;;4880994;29;20628;-77
2023/12/25 08:14:41;;;;;;;9.10;8.60;;;8.20;99.90;;;;;;4894615;29;20221;-76
2023/12/25 08:17:07;;;;;;;9.17;8.67;;;8.30;99.90;;;;;;4873956;29;20248;-77
2023/12/25 08:19:34;;;;;;;10.00;9.40;;;8.30;99.90;;;;;;4878244;29;20324;-76
2023/12/25 08:22:01;;;;;;;9.93;9.30;;;8.30;99.90;;;;;;4893921;29;20307;-77
2023/12/25 08:24:28;;;;;;;9.97;9.37;;;8.30;99.90;;;;;;4881296;29;20201;-77
2023/12/25 08:26:56;;;;;;;10.00;9.40;;;8.40;99.90;;;;;;4870473;29;20619;-77
2023/12/25 08:29:23;;;;;;;9.50;9.00;;;8.40;99.90;;;;;;4887760;29;20208;-77
2023/12/25 08:31:50;;;;;;;9.90;9.30;;;8.40;99.90;;;;;;4882134;29;20654;-78
2023/12/25 08:34:17;;;;;;;9.90;9.30;;;8.40;99.90;;;;;;4893324;29;20225;-76
2023/12/25 08:36:44;;;;;;;10.00;9.40;;;8.40;99.90;;;;;;4879528;29;20236;-78
2023/12/25 08:39:10;;;;;;;9.70;9.20;;;8.50;99.90;;;;;;4891175;29;20278;-78
2023/12/25 08:41:37;;;;;;;9.53;9.03;;;8.60;99.90;;;;;;4870956;29;20633;-77
2023/12/25 08:44:06;;;;;;;9.67;9.07;;;8.60;99.90;;;;;;4877347;29;20275;-77
2023/12/25 08:46:33;;;;;;;9.17;8.67;;;8.70;99.90;;;;;;4895631;29;20213;-77
2023/12/25 08:49:00;;;;;;;9.57;8.97;;;8.70;99.90;;;;;;4872062;29;20201;-77
2023/12/25 08:51:26;;;;;;;9.80;9.20;;;8.80;99.90;;;;;;4880443;29;20228;-76
2023/12/25 08:53:53;;;;;;;9.60;9.10;;;8.90;99.90;;;;;;4877937;29;20269;-76
2023/12/25 08:56:24;;;;;;;9.50;9.00;;;8.90;99.90;;;;;;4880067;29;20304;-77
2023/12/25 08:58:51;;;;;;;9.57;9.03;;;9.00;99.90;;;;;;4880476;29;20201;-77
2023/12/25 09:01:19;;;;;;;9.70;9.10;;;9.00;99.90;;;;;;4879969;29;20232;-77
2023/12/25 09:03:46;;;;;;;9.50;8.90;;;9.20;99.90;;;;;;4878934;29;20680;-77
2023/12/25 09:06:13;;;;;;;9.23;8.73;;;9.30;99.90;;;;;;4880476;29;20200;-79
2023/12/25 09:08:40;;;;;;;9.60;9.00;;;9.40;99.90;;;;;;4875310;29;20205;-80
2023/12/25 09:11:08;;;;;;;9.50;9.00;;;9.40;99.90;;;;;;4877508;29;20271;-77
2023/12/25 09:13:35;;;;;;;9.50;9.00;;;9.50;99.90;;;;;;4880666;29;20202;-78
2023/12/25 09:16:02;;;;;;;9.50;8.90;;;9.60;99.90;;;;;;4878088;29;20225;-78
2023/12/25 09:18:30;;;;;;;10.00;9.10;;;9.60;99.90;;;;;;4880075;29;20260;-76
2023/12/25 09:20:58;;;;;;;9.40;8.90;;;9.70;99.90;;;;;;4879984;29;20225;-77
2023/12/25 09:23:24;;;;;;;9.50;9.00;;;9.80;99.90;;;;;;4897358;29;20204;-79
2023/12/25 09:25:51;;;;;;;10.07;9.50;;;9.80;99.90;;;;;;4880128;29;20226;-76
2023/12/25 09:28:18;;;;;;;10.07;9.47;;;9.80;99.90;;;;;;4872579;29;20212;-77
2023/12/25 09:30:45;;;;;;;9.23;8.73;;;9.90;99.90;;;;;;4881186;29;20251;-77
2023/12/25 09:33:12;;;;;;;9.20;8.70;;;9.90;99.90;;;;;;4897124;29;20650;-77
2023/12/25 09:35:40;;;;;;;10.10;9.50;;;9.90;99.90;;;;;;4875666;29;20237;-76
2023/12/25 09:38:08;;;;;;;9.83;9.33;;;9.80;99.90;;;;;;4877105;29;20201;-77
2023/12/25 09:40:35;;;;;;;9.80;9.20;;;9.80;99.90;;;;;;4881233;29;20230;-77
2023/12/25 09:43:02;;;;;;;9.40;8.90;;;9.90;99.90;;;;;;4881728;29;20222;-77
2023/12/25 09:45:33;;;;;;;9.50;9.00;;;9.90;99.90;;;;;;4881408;29;20638;-78
2023/12/25 09:48:00;;;;;;;9.40;8.90;;;10.00;99.90;;;;;;4875492;29;20205;-78
2023/12/25 09:50:27;;;;;;;9.20;8.70;;;10.00;99.90;;;;;;4894281;29;20221;-77
2023/12/25 09:52:56;;;;;;;9.60;9.00;;;10.10;99.90;;;;;;4879677;29;20292;-78
2023/12/25 09:55:23;;;;;;;9.60;9.00;;;10.10;99.90;;;;;;4880038;29;20708;-78
2023/12/25 09:57:52;;;;;;;9.50;8.93;;;10.10;99.90;;;;;;4881017;29;20678;-77
2023/12/25 10:00:20;;;;;;;9.40;8.90;;;10.10;99.90;;;;;;4878094;29;20795;-78
2023/12/25 10:02:49;;;;;;;9.97;9.37;;;10.10;99.90;;;;;;4879218;29;20250;-77
2023/12/25 10:05:18;;;;;;;9.70;9.10;;;10.20;99.90;;;;;;4879432;29;20197;-78
2023/12/25 10:07:45;;;;;;;9.50;8.90;;;10.20;99.90;;;;;;4878223;29;20205;-77
2023/12/25 10:10:14;;;;;;;9.83;9.20;;;10.20;99.90;;;;;;4877061;29;20612;-78
2023/12/25 10:12:44;;;;;;;10.00;9.10;;;10.20;99.90;;;;;;4879779;29;20209;-78
2023/12/25 10:15:12;;;;;;;9.80;9.20;;;10.30;99.90;;;;;;4877941;29;20288;-79
2023/12/25 10:17:39;;;;;;;9.50;9.00;;;10.30;99.90;;;;;;4887604;29;20234;-79
2023/12/25 10:20:07;;;;;;;9.67;9.17;;;10.30;99.90;;;;;;4886465;29;20239;-78
2023/12/25 10:22:37;;;;;;;9.70;9.10;;;10.30;99.90;;;;;;4886270;29;20245;-77
2023/12/25 10:25:09;;;;;;;9.47;8.97;;;10.40;99.90;;;;;;4878771;29;20269;-78
2023/12/25 10:27:39;;;;;;;9.53;8.93;;;10.40;99.90;;;;;;4885190;29;20232;-79
2023/12/25 10:30:16;;;;;;;9.40;8.80;;;10.40;99.90;;;;;;4887969;29;20248;-78
2023/12/25 10:32:42;;;;;;;9.77;9.07;;;10.40;99.90;;;;;;4881987;29;20214;-79
2023/12/25 10:35:13;;;;;;;9.33;8.80;;;10.30;99.90;;;;;;4882070;29;20256;-78
2023/12/25 10:37:42;;;;;;;9.17;8.67;;;10.30;99.90;;;;;;4880158;29;20210;-78
2023/12/25 10:40:22;;;;;;;9.70;9.20;;;10.30;99.90;;;;;;4872520;29;20594;-78
2023/12/25 10:42:52;;;;;;;9.37;8.77;;;10.30;99.90;;;;;;4885122;29;20273;-80
2023/12/25 10:45:22;;;;;;;9.50;8.90;;;10.30;99.90;;;;;;4880243;29;20284;-79
2023/12/25 10:47:51;;;;;;;9.63;9.03;;;10.30;99.90;;;;;;4878363;29;20205;-78
2023/12/25 10:50:21;;;;;;;9.70;9.00;;;10.40;99.90;;;;;;4887222;29;20222;-81
2023/12/25 10:52:49;;;;;;;9.50;8.90;;;10.40;99.90;;;;;;4882447;29;20258;-80
2023/12/25 10:55:24;;;;;;;9.03;8.53;;;10.50;99.90;;;;;;4883979;29;20218;-79
2023/12/25 10:57:57;;;;;;;9.10;8.60;;;10.60;99.90;;;;;;4886380;29;20639;-81
2023/12/25 11:00:25;;;;;;;9.17;8.67;;;10.70;99.90;;;;;;4895829;29;20282;-78
2023/12/25 11:02:55;;;;;;;9.27;8.67;;;10.80;99.90;;;;;;4883242;29;20210;-81
2023/12/25 11:05:22;;;;;;;9.30;8.70;;;10.80;99.90;;;;;;4883430;29;20206;-80
2023/12/25 11:07:50;;;;;;;9.20;8.70;;;10.70;99.90;;;;;;4884452;29;20646;-78
2023/12/25 11:10:18;;;;;;;8.80;8.30;;;10.70;99.90;;;;;;4887899;29;20233;-80
2023/12/25 11:12:45;;;;;;;9.57;9.07;;;10.70;99.90;;;;;;4884832;29;20198;-80
2023/12/25 11:15:14;;;;;;;9.57;8.97;;;10.70;99.90;;;;;;4885435;29;20274;-79
2023/12/25 11:17:41;;;;;;;9.33;8.83;;;10.70;99.90;;;;;;4884240;29;20238;-79
2023/12/25 11:20:11;;;;;;;9.63;9.03;;;10.80;99.90;;;;;;4883193;29;20223;-82
2023/12/25 11:22:40;;;;;;;9.60;9.10;;;10.80;99.90;;;;;;4898817;29;20306;-78
2023/12/25 11:25:15;;;;;;;9.57;9.00;;;10.90;99.90;;;;;;4877057;29;20271;-80
2023/12/25 11:27:43;;;;;;;9.53;9.03;;;11.00;99.90;;;;;;4887592;29;20633;-80
2023/12/25 11:30:11;;;;;;;10.30;9.70;;;11.00;99.90;;;;;;4898066;29;20226;-79
2023/12/25 11:32:45;;;;;;;9.70;9.10;;;11.00;99.90;;;;;;4882799;29;20215;-79
2023/12/25 11:35:17;;;;;;;10.00;9.40;;;11.10;99.90;;;;;;4878341;29;20298;-85
2023/12/25 11:37:44;;;;;;;10.33;9.73;;;11.10;99.90;;;;;;4877833;29;20271;-82
2023/12/25 11:40:10;;;;;;;10.13;9.53;;;11.10;99.90;;;;;;4881516;29;20797;-80
2023/12/25 11:42:38;;;;;;;10.33;9.63;;;11.10;99.90;;;;;;4893867;29;20215;-76
2023/12/25 11:45:09;;;;;;;10.07;9.37;;;11.10;99.90;;;;;;4883222;29;20255;-77
2023/12/25 11:47:43;;;;;;;9.73;9.13;;;11.20;99.90;;;;;;4881832;29;20285;-78
2023/12/25 11:50:11;;;;;;;10.33;9.63;;;11.20;99.90;;;;;;4877544;29;20261;-77
2023/12/25 11:52:53;;;;;;;11.07;10.17;;;11.20;99.90;;;;;;4883738;29;20594;-77
2023/12/25 11:55:20;;;;;;;10.70;9.87;;;11.20;99.90;;;;;;4873353;29;20225;-77
2023/12/25 11:57:47;;;;;;;10.07;9.30;;;11.20;99.90;;;;;;4882229;29;20294;-77
2023/12/25 12:00:19;;;;;;;9.93;9.30;;;11.20;99.90;;;;;;4877254;29;20230;-77
2023/12/25 12:02:47;;;;;;;10.10;9.50;;;11.20;99.90;;;;;;4883992;29;20199;-78
2023/12/25 12:05:15;;;;;;;9.80;9.10;;;11.20;99.90;;;;;;4880246;29;20207;-77
2023/12/25 12:07:42;;;;;;;9.70;9.00;;;11.30;99.90;;;;;;4905446;29;20520;-77
2023/12/25 12:10:10;;;;;;;9.70;9.00;;;11.30;99.90;;;;;;4883202;29;20277;-77
2023/12/25 12:12:37;;;;;;;9.87;9.23;;;11.40;99.90;;;;;;4883382;29;20264;-77
2023/12/25 12:15:05;;;;;;;10.57;9.77;;;11.40;99.90;;;;;;4883419;29;20302;-77
2023/12/25 12:17:34;;;;;;;9.90;9.20;;;11.50;99.90;;;;;;4872427;29;20235;-78
2023/12/25 12:20:02;;;;;;;9.80;9.20;;;11.50;99.90;;;;;;4881934;29;20648;-77
2023/12/25 12:22:29;;;;;;;9.20;8.60;;;11.60;99.90;;;;;;4883673;29;20209;-77
2023/12/25 12:25:12;;;;;;;8.90;8.40;;;11.60;99.90;;;;;;4882341;29;20271;-78
2023/12/25 12:27:39;;;;;;;9.00;8.40;;;11.60;99.90;;;;;;4882433;29;20207;-77
2023/12/25 12:30:07;;;;;;;8.80;8.30;;;11.70;99.90;;;;;;4881939;29;20254;-77
2023/12/25 12:32:35;;;;;;;9.00;8.50;;;11.80;99.90;;;;;;4882345;29;20278;-77
2023/12/25 12:35:04;;;;;;;8.60;8.10;;;11.80;99.90;;;;;;4882417;29;20208;-77
2023/12/25 12:37:31;;;;;;;9.10;8.50;;;11.80;99.90;;;;;;4882846;29;20232;-77
2023/12/25 12:40:03;;;;;;;8.60;8.10;;;11.80;99.90;;;;;;4882111;29;20279;-77
2023/12/25 12:42:33;;;;;;;8.50;8.00;;;11.80;99.90;;;;;;4881982;29;20204;-77
2023/12/25 12:45:01;;;;;;;9.70;9.10;;;11.80;99.90;;;;;;4896052;29;20212;-78
2023/12/25 12:47:27;;;;;;;9.47;8.87;;;11.80;99.90;;;;;;4896349;29;20244;-77
2023/12/25 12:49:54;;;;;;;9.20;8.60;;;11.80;99.90;;;;;;4896469;29;20209;-77